createdAt,value
2017-06-15T00:00:09.819Z,96.32
2017-06-15T00:01:11.252Z,95.94
2017-06-15T00:02:12.677Z,97.95
2017-06-15T00:03:14.103Z,97.85
2017-06-15T00:04:15.528Z,98.62
2017-06-15T00:05:16.972Z,98.24
2017-06-15T00:06:18.407Z,97.23
2017-06-15T00:07:19.823Z,97.47
2017-06-15T00:08:21.257Z,97.56
2017-06-15T00:09:22.683Z,98.47
2017-06-15T00:10:24.105Z,99.33
2017-06-15T00:11:25.535Z,99.72
2017-06-15T00:12:26.961Z,99.29
2017-06-15T00:13:28.383Z,99.99
2017-06-15T00:14:29.812Z,99.77
2017-06-15T00:15:31.239Z,98.43
2017-06-15T00:16:32.671Z,98.81
2017-06-15T00:17:34.097Z,99.29
2017-06-15T00:18:35.550Z,99.33
2017-06-15T00:19:36.963Z,99.15
2017-06-15T00:20:38.388Z,98.09
2017-06-15T00:21:39.821Z,99.67
2017-06-15T00:22:41.257Z,99.38
2017-06-15T00:23:42.683Z,98.52
2017-06-15T00:24:44.105Z,98.52
2017-06-15T00:25:45.533Z,97.85
2017-06-15T00:26:46.959Z,97.95
2017-06-15T00:27:48.393Z,98.71
2017-06-15T00:28:49.818Z,99.43
2017-06-15T00:29:51.238Z,99.62
2017-06-15T00:30:52.666Z,99.99
2017-06-15T00:31:54.097Z,99.72
2017-06-15T00:32:55.525Z,99.99
2017-06-15T00:33:56.955Z,99.99
2017-06-15T00:34:58.396Z,99.99
2017-06-15T00:35:59.814Z,99.99
2017-06-15T00:37:01.264Z,99.99
2017-06-15T00:38:02.688Z,99.99
2017-06-15T00:39:04.122Z,99.99
2017-06-15T00:40:05.544Z,99.29
2017-06-15T00:41:06.972Z,99.48
2017-06-15T00:42:08.390Z,98.62
2017-06-15T00:43:09.858Z,98.43
2017-06-15T00:44:11.288Z,98.62
2017-06-15T00:45:12.712Z,98.62
2017-06-15T00:46:14.135Z,98.52
2017-06-15T00:47:15.567Z,98.43
2017-06-15T00:48:17.022Z,97.85
2017-06-15T00:49:18.445Z,98.14
2017-06-15T00:50:19.873Z,98.24
2017-06-15T00:51:21.302Z,98.62
2017-06-15T00:52:22.732Z,98.52
2017-06-15T00:53:24.167Z,97.66
2017-06-15T00:54:25.598Z,97.18
2017-06-15T00:55:27.026Z,96.61
2017-06-15T00:56:28.450Z,96.22
2017-06-15T00:57:29.880Z,96.42
2017-06-15T00:58:31.303Z,96.22
2017-06-15T00:59:32.723Z,96.32
2017-06-15T01:00:34.152Z,96.32
2017-06-15T01:01:35.589Z,96.32
2017-06-15T01:02:37.017Z,96.51
2017-06-15T01:03:38.435Z,96.13
2017-06-15T01:04:39.871Z,96.22
2017-06-15T01:05:41.292Z,96.89
2017-06-15T01:06:42.715Z,97.09
2017-06-15T01:07:44.147Z,96.99
2017-06-15T01:08:45.570Z,98.52
2017-06-15T01:09:46.999Z,97.56
2017-06-15T01:10:48.428Z,98.43
2017-06-15T01:11:49.845Z,97.56
2017-06-15T01:12:51.279Z,97.85
2017-06-15T01:13:52.705Z,97.47
2017-06-15T01:14:54.131Z,98.47
2017-06-15T01:15:55.567Z,98.81
2017-06-15T01:16:56.993Z,98.43
2017-06-15T01:17:58.424Z,98.57
2017-06-15T01:18:59.850Z,97.66
2017-06-15T01:20:01.275Z,97.18
2017-06-15T01:21:02.704Z,97.66
2017-06-15T01:22:04.130Z,97.42
2017-06-15T01:23:05.563Z,98.66
2017-06-15T01:24:06.992Z,98.62
2017-06-15T01:25:08.417Z,98.24
2017-06-15T01:26:09.841Z,98.28
2017-06-15T01:27:11.268Z,98.62
2017-06-15T01:28:12.698Z,98.57
2017-06-15T01:29:14.123Z,98.62
2017-06-15T01:30:15.573Z,99.43
2017-06-15T01:31:17.006Z,99.43
2017-06-15T01:32:18.440Z,99.43
2017-06-15T01:33:19.865Z,98.71
2017-06-15T01:34:21.293Z,99.43
2017-06-15T01:35:22.715Z,99.99
2017-06-15T01:36:24.146Z,99.99
2017-06-15T01:37:25.569Z,99.24
2017-06-15T01:38:27.002Z,99.43
2017-06-15T01:39:28.430Z,98.71
2017-06-15T01:40:29.853Z,97.56
2017-06-15T01:41:31.273Z,98.62
2017-06-15T01:42:32.703Z,98.62
2017-06-15T01:43:34.162Z,99.52
2017-06-15T01:44:35.588Z,99.15
2017-06-15T01:45:37.014Z,99.33
2017-06-15T01:46:38.432Z,99.15
2017-06-15T01:47:39.858Z,99.43
2017-06-15T01:48:41.291Z,98.43
2017-06-15T01:49:42.715Z,97.42
2017-06-15T01:50:44.152Z,97.18
2017-06-15T01:51:45.640Z,97.80
2017-06-15T01:52:47.126Z,95.98
2017-06-15T01:53:48.559Z,96.27
2017-06-15T01:54:49.988Z,96.27
2017-06-15T01:55:51.414Z,97.23
2017-06-15T01:56:52.837Z,98.00
2017-06-15T01:57:54.263Z,96.61
2017-06-15T01:58:55.693Z,97.18
2017-06-15T01:59:57.161Z,96.37
2017-06-15T02:00:58.595Z,97.42
2017-06-15T02:02:00.018Z,97.04
2017-06-15T02:03:01.449Z,97.13
2017-06-15T02:04:02.886Z,97.52
2017-06-15T02:05:04.310Z,97.52
2017-06-15T02:06:05.736Z,96.22
2017-06-15T02:07:07.164Z,96.47
2017-06-15T02:08:08.596Z,96.27
2017-06-15T02:09:10.028Z,97.42
2017-06-15T02:10:11.456Z,96.13
2017-06-15T02:11:12.882Z,96.56
2017-06-15T02:12:14.304Z,96.47
2017-06-15T02:13:15.739Z,96.08
2017-06-15T02:14:17.164Z,97.80
2017-06-15T02:15:18.594Z,97.33
2017-06-15T02:16:20.016Z,96.47
2017-06-15T02:17:21.446Z,96.18
2017-06-15T02:18:22.871Z,97.52
2017-06-15T02:19:24.295Z,98.43
2017-06-15T02:20:25.723Z,98.57
2017-06-15T02:21:27.149Z,98.57
2017-06-15T02:22:28.568Z,98.76
2017-06-15T02:23:29.999Z,99.99
2017-06-15T02:24:31.424Z,99.99
2017-06-15T02:25:32.859Z,99.99
2017-06-15T02:26:34.281Z,99.48
2017-06-15T02:27:35.703Z,99.33
2017-06-15T02:28:37.135Z,98.57
2017-06-15T02:29:38.560Z,99.38
2017-06-15T02:30:39.988Z,99.57
2017-06-15T02:31:41.412Z,99.43
2017-06-15T02:32:42.836Z,99.33
2017-06-15T02:33:44.267Z,99.10
2017-06-15T02:34:45.691Z,99.19
2017-06-15T02:35:47.119Z,98.76
2017-06-15T02:36:48.542Z,98.47
2017-06-15T02:37:49.967Z,98.57
2017-06-15T02:38:51.394Z,98.71
2017-06-15T02:39:52.816Z,99.19
2017-06-15T02:40:54.242Z,98.66
2017-06-15T02:41:55.671Z,98.57
2017-06-15T02:42:57.092Z,98.38
2017-06-15T02:43:58.521Z,97.61
2017-06-15T02:44:59.944Z,99.52
2017-06-15T02:46:01.376Z,98.57
2017-06-15T02:47:02.792Z,99.99
2017-06-15T02:48:04.222Z,99.99
2017-06-15T02:49:05.652Z,99.99
2017-06-15T02:50:07.075Z,99.99
2017-06-15T02:51:08.499Z,99.99
2017-06-15T02:52:09.927Z,99.99
2017-06-15T02:53:11.362Z,99.99
2017-06-15T02:54:12.788Z,99.43
2017-06-15T02:55:14.229Z,99.05
2017-06-15T02:56:15.659Z,98.57
2017-06-15T02:57:17.083Z,98.57
2017-06-15T02:58:18.513Z,98.86
2017-06-15T02:59:19.943Z,99.86
2017-06-15T03:00:21.375Z,99.99
2017-06-15T03:01:22.806Z,99.81
2017-06-15T03:02:24.245Z,99.81
2017-06-15T03:03:25.674Z,99.99
2017-06-15T03:04:27.105Z,99.72
2017-06-15T03:05:28.535Z,99.99
2017-06-15T03:06:29.965Z,99.99
2017-06-15T03:07:31.474Z,99.99
2017-06-15T03:08:32.934Z,99.99
2017-06-15T03:09:34.365Z,99.99
2017-06-15T03:10:35.802Z,99.99
2017-06-15T03:11:37.231Z,99.43
2017-06-15T03:12:38.657Z,99.99
2017-06-15T03:13:40.084Z,99.24
2017-06-15T03:14:41.523Z,99.33
2017-06-15T03:15:42.949Z,99.43
2017-06-15T03:16:44.376Z,99.43
2017-06-15T03:17:45.798Z,99.33
2017-06-15T03:18:47.219Z,98.86
2017-06-15T03:19:48.648Z,98.47
2017-06-15T03:20:50.079Z,98.28
2017-06-15T03:21:51.505Z,98.28
2017-06-15T03:22:52.931Z,98.38
2017-06-15T03:23:54.358Z,98.57
2017-06-15T03:24:55.784Z,99.43
2017-06-15T03:25:57.210Z,99.62
2017-06-15T03:26:58.631Z,98.95
2017-06-15T03:28:00.060Z,98.47
2017-06-15T03:29:01.486Z,98.33
2017-06-15T03:30:02.919Z,98.76
2017-06-15T03:31:04.347Z,98.28
2017-06-15T03:32:05.776Z,98.95
2017-06-15T03:33:07.200Z,99.43
2017-06-15T03:34:08.624Z,98.38
2017-06-15T03:35:10.049Z,99.72
2017-06-15T03:36:11.479Z,98.38
2017-06-15T03:37:12.902Z,98.38
2017-06-15T03:38:14.327Z,98.47
2017-06-15T03:39:15.748Z,98.57
2017-06-15T03:40:17.176Z,98.52
2017-06-15T03:41:18.611Z,99.19
2017-06-15T03:42:20.032Z,99.33
2017-06-15T03:43:21.458Z,99.48
2017-06-15T03:44:22.887Z,99.38
2017-06-15T03:45:24.316Z,99.99
2017-06-15T03:46:25.744Z,99.52
2017-06-15T03:47:27.178Z,99.43
2017-06-15T03:48:28.608Z,99.99
2017-06-15T03:49:30.033Z,99.43
2017-06-15T03:50:31.461Z,99.33
2017-06-15T03:51:32.903Z,99.24
2017-06-15T03:52:34.330Z,99.99
2017-06-15T03:53:35.760Z,99.33
2017-06-15T03:54:37.193Z,99.99
2017-06-15T03:55:38.639Z,99.99
2017-06-15T03:56:40.068Z,99.99
2017-06-15T03:57:41.499Z,99.99
2017-06-15T03:58:42.925Z,99.99
2017-06-15T03:59:44.359Z,99.99
2017-06-15T04:00:45.799Z,99.99
2017-06-15T04:01:47.226Z,99.99
2017-06-15T04:02:48.648Z,99.99
2017-06-15T04:03:50.079Z,99.99
2017-06-15T04:04:52.272Z,99.99
2017-06-15T04:05:53.697Z,99.99
2017-06-15T04:06:55.129Z,99.99
2017-06-15T04:07:56.564Z,99.99
2017-06-15T04:08:57.985Z,99.99
2017-06-15T04:09:59.426Z,99.99
2017-06-15T04:11:00.858Z,99.99
2017-06-15T04:12:02.297Z,99.99
2017-06-15T04:13:03.729Z,99.99
2017-06-15T04:14:05.157Z,99.99
2017-06-15T04:15:06.593Z,99.99
2017-06-15T04:16:08.031Z,99.99
2017-06-15T04:17:09.453Z,99.99
2017-06-15T04:18:10.878Z,99.99
2017-06-15T04:19:12.316Z,99.99
2017-06-15T04:20:13.748Z,99.99
2017-06-15T04:21:15.182Z,99.99
2017-06-15T04:22:16.608Z,99.99
2017-06-15T04:23:18.042Z,99.99
2017-06-15T04:24:19.470Z,99.99
2017-06-15T04:25:20.900Z,99.99
2017-06-15T04:26:22.328Z,99.99
2017-06-15T04:27:23.760Z,99.99
2017-06-15T04:28:25.190Z,99.48
2017-06-15T04:29:26.621Z,99.58
2017-06-15T04:30:28.055Z,99.99
2017-06-15T04:31:29.489Z,99.99
2017-06-15T04:32:30.918Z,99.99
2017-06-15T04:33:32.345Z,99.99
2017-06-15T04:34:33.815Z,99.99
2017-06-15T04:35:35.221Z,99.99
2017-06-15T04:36:36.651Z,99.99
2017-06-15T04:37:38.078Z,99.99
2017-06-15T04:38:39.507Z,99.99
2017-06-15T04:39:40.934Z,99.99
2017-06-15T04:40:42.367Z,99.99
2017-06-15T04:41:43.789Z,99.99
2017-06-15T04:42:45.219Z,99.99
2017-06-15T04:43:46.653Z,99.99
2017-06-15T04:44:48.077Z,99.99
2017-06-15T04:45:49.511Z,99.99
2017-06-15T04:46:50.937Z,99.99
2017-06-15T04:47:52.366Z,99.99
2017-06-15T04:48:53.798Z,99.99
2017-06-15T04:49:55.224Z,99.99
2017-06-15T04:50:56.660Z,99.99
2017-06-15T04:51:58.091Z,99.99
2017-06-15T04:52:59.516Z,99.99
2017-06-15T04:54:00.943Z,99.99
2017-06-15T04:55:02.389Z,99.99
2017-06-15T04:56:03.825Z,99.99
2017-06-15T04:57:05.256Z,99.99
2017-06-15T04:58:06.708Z,99.99
2017-06-15T04:59:08.137Z,99.99
2017-06-15T05:00:09.571Z,99.99
2017-06-15T05:01:11.007Z,99.99
2017-06-15T05:02:12.438Z,99.99
2017-06-15T05:03:13.870Z,99.99
2017-06-15T05:04:15.301Z,99.99
2017-06-15T05:05:16.735Z,99.99
2017-06-15T05:06:18.176Z,99.99
2017-06-15T05:07:19.601Z,99.99
2017-06-15T05:08:21.032Z,99.99
2017-06-15T05:09:22.459Z,99.99
2017-06-15T05:10:23.898Z,99.99
2017-06-15T05:11:25.334Z,99.99
2017-06-15T05:12:26.790Z,99.87
2017-06-15T05:13:28.212Z,99.68
2017-06-15T05:14:29.642Z,98.82
2017-06-15T05:15:31.070Z,98.62
2017-06-15T05:16:32.514Z,99.01
2017-06-15T05:17:33.948Z,97.76
2017-06-15T05:18:35.383Z,98.19
2017-06-15T05:19:36.823Z,98.10
2017-06-15T05:20:38.249Z,98.48
2017-06-15T05:21:39.695Z,98.00
2017-06-15T05:22:41.131Z,96.75
2017-06-15T05:23:42.563Z,98.00
2017-06-15T05:24:43.992Z,96.56
2017-06-15T05:25:45.525Z,96.66
2017-06-15T05:26:46.962Z,96.18
2017-06-15T05:27:48.407Z,96.08
2017-06-15T05:28:49.879Z,93.97
2017-06-15T05:29:51.324Z,93.97
2017-06-15T05:30:52.763Z,93.54
2017-06-15T05:31:54.195Z,92.29
2017-06-15T05:32:55.630Z,92.86
2017-06-15T05:33:57.096Z,93.25
2017-06-15T05:34:58.568Z,93.54
2017-06-15T05:36:00.016Z,91.23
2017-06-15T05:37:01.450Z,92.67
2017-06-15T05:38:02.879Z,92.14
2017-06-15T05:39:04.313Z,91.18
2017-06-15T05:40:05.747Z,92.48
2017-06-15T05:41:07.179Z,89.07
2017-06-15T05:42:08.611Z,88.97
2017-06-15T05:43:10.040Z,91.66
2017-06-15T05:44:11.470Z,91.04
2017-06-15T05:45:12.904Z,91.66
2017-06-15T05:46:14.331Z,90.41
2017-06-15T05:47:15.770Z,91.28
2017-06-15T05:48:17.202Z,90.99
2017-06-15T05:49:18.635Z,89.16
2017-06-15T05:50:20.060Z,88.73
2017-06-15T05:51:21.498Z,86.99
2017-06-15T05:52:22.946Z,87.57
2017-06-15T05:53:24.379Z,85.84
2017-06-15T05:54:25.810Z,88.06
2017-06-15T05:55:27.240Z,87.96
2017-06-15T05:56:28.672Z,86.52
2017-06-15T05:57:30.109Z,89.01
2017-06-15T05:58:31.546Z,88.44
2017-06-15T05:59:32.982Z,88.82
2017-06-15T06:00:34.417Z,88.44
2017-06-15T06:01:35.844Z,90.36
2017-06-15T06:02:37.283Z,88.44
2017-06-15T06:03:38.714Z,89.69
2017-06-15T06:04:40.146Z,89.69
2017-06-15T06:05:41.572Z,88.82
2017-06-15T06:06:43.006Z,88.29
2017-06-15T06:07:44.444Z,88.48
2017-06-15T06:08:45.873Z,88.00
2017-06-15T06:09:47.296Z,88.57
2017-06-15T06:10:48.741Z,88.67
2017-06-15T06:11:50.169Z,87.33
2017-06-15T06:12:51.598Z,87.46
2017-06-15T06:13:53.029Z,87.46
2017-06-15T06:14:54.459Z,88.00
2017-06-15T06:15:55.892Z,88.14
2017-06-15T06:16:57.324Z,87.95
2017-06-15T06:17:58.762Z,87.85
2017-06-15T06:19:00.187Z,89.20
2017-06-15T06:20:01.620Z,86.79
2017-06-15T06:21:03.050Z,86.16
2017-06-15T06:22:04.479Z,86.83
2017-06-15T06:23:05.908Z,88.33
2017-06-15T06:24:07.336Z,86.45
2017-06-15T06:25:08.770Z,85.20
2017-06-15T06:26:10.208Z,84.33
2017-06-15T06:27:11.634Z,83.66
2017-06-15T06:28:13.069Z,84.53
2017-06-15T06:29:14.502Z,85.39
2017-06-15T06:30:15.934Z,83.66
2017-06-15T06:31:17.369Z,83.95
2017-06-15T06:32:18.796Z,83.95
2017-06-15T06:33:20.224Z,82.89
2017-06-15T06:34:21.661Z,83.85
2017-06-15T06:35:23.088Z,82.89
2017-06-15T06:36:24.519Z,82.98
2017-06-15T06:37:25.948Z,82.83
2017-06-15T06:38:27.382Z,83.31
2017-06-15T06:39:28.817Z,83.89
2017-06-15T06:40:30.252Z,82.74
2017-06-15T06:41:31.681Z,82.06
2017-06-15T06:42:33.116Z,82.74
2017-06-15T06:43:34.547Z,83.07
2017-06-15T06:44:35.977Z,82.26
2017-06-15T06:45:37.423Z,81.52
2017-06-15T06:46:38.857Z,81.72
2017-06-15T06:47:40.305Z,82.97
2017-06-15T06:48:41.738Z,82.20
2017-06-15T06:49:43.165Z,81.33
2017-06-15T06:50:44.600Z,80.94
2017-06-15T06:51:46.035Z,80.94
2017-06-15T06:52:47.466Z,81.04
2017-06-15T06:53:48.900Z,80.94
2017-06-15T06:54:50.335Z,80.46
2017-06-15T06:55:51.766Z,80.12
2017-06-15T06:56:53.197Z,81.24
2017-06-15T06:57:54.640Z,80.94
2017-06-15T06:58:56.068Z,81.62
2017-06-15T06:59:57.502Z,79.44
2017-06-15T07:00:58.932Z,80.51
2017-06-15T07:02:00.379Z,78.86
2017-06-15T07:03:01.818Z,78.48
2017-06-15T07:04:03.244Z,78.42
2017-06-15T07:05:04.683Z,77.94
2017-06-15T07:06:06.109Z,78.71
2017-06-15T07:07:07.544Z,78.03
2017-06-15T07:08:08.978Z,78.81
2017-06-15T07:09:10.413Z,79.10
2017-06-15T07:10:11.839Z,78.81
2017-06-15T07:11:13.273Z,77.75
2017-06-15T07:12:14.711Z,78.61
2017-06-15T07:13:16.144Z,79.14
2017-06-15T07:14:17.578Z,79.00
2017-06-15T07:15:19.009Z,78.91
2017-06-15T07:16:20.447Z,79.52
2017-06-15T07:17:21.880Z,78.85
2017-06-15T07:18:23.322Z,80.87
2017-06-15T07:19:24.757Z,81.16
2017-06-15T07:20:26.203Z,79.81
2017-06-15T07:21:27.642Z,78.94
2017-06-15T07:22:29.090Z,77.21
2017-06-15T07:23:30.531Z,77.21
2017-06-15T07:24:31.963Z,75.89
2017-06-15T07:25:33.407Z,76.37
2017-06-15T07:26:34.845Z,75.99
2017-06-15T07:27:36.273Z,76.57
2017-06-15T07:28:37.715Z,77.25
2017-06-15T07:29:39.145Z,77.86
2017-06-15T07:30:40.577Z,77.25
2017-06-15T07:31:42.012Z,76.32
2017-06-15T07:32:43.454Z,76.61
2017-06-15T07:33:44.890Z,77.19
2017-06-15T07:34:46.341Z,76.32
2017-06-15T07:35:47.780Z,77.09
2017-06-15T07:36:49.210Z,77.09
2017-06-15T07:37:50.640Z,75.45
2017-06-15T07:38:52.084Z,75.74
2017-06-15T07:39:53.508Z,76.12
2017-06-15T07:40:54.939Z,75.97
2017-06-15T07:41:56.369Z,75.39
2017-06-15T07:42:57.811Z,74.71
2017-06-15T07:43:59.253Z,75.58
2017-06-15T07:45:00.686Z,76.45
2017-06-15T07:46:02.125Z,76.55
2017-06-15T07:47:03.565Z,74.90
2017-06-15T07:48:04.997Z,75.68
2017-06-15T07:49:06.437Z,75.20
2017-06-15T07:50:07.865Z,73.90
2017-06-15T07:51:09.292Z,74.81
2017-06-15T07:52:10.731Z,76.06
2017-06-15T07:53:12.171Z,75.58
2017-06-15T07:54:13.605Z,76.35
2017-06-15T07:55:15.044Z,75.87
2017-06-15T07:56:16.475Z,75.87
2017-06-15T07:57:17.911Z,76.35
2017-06-15T07:58:19.349Z,75.97
2017-06-15T07:59:20.789Z,75.78
2017-06-15T08:00:22.237Z,76.59
2017-06-15T08:01:23.670Z,75.68
2017-06-15T08:02:25.102Z,75.13
2017-06-15T08:03:26.527Z,74.75
2017-06-15T08:04:27.976Z,74.65
2017-06-15T08:05:29.408Z,74.85
2017-06-15T08:06:30.852Z,73.78
2017-06-15T08:07:32.284Z,75.71
2017-06-15T08:08:33.715Z,76.59
2017-06-15T08:09:35.153Z,76.20
2017-06-15T08:10:36.588Z,72.81
2017-06-15T08:11:38.029Z,72.33
2017-06-15T08:12:39.467Z,73.39
2017-06-15T08:13:40.902Z,73.78
2017-06-15T08:14:42.343Z,71.94
2017-06-15T08:15:43.790Z,71.59
2017-06-15T08:16:45.226Z,71.01
2017-06-15T08:17:46.665Z,70.62
2017-06-15T08:18:48.100Z,71.01
2017-06-15T08:19:49.534Z,71.78
2017-06-15T08:20:50.969Z,70.88
2017-06-15T08:21:52.411Z,71.84
2017-06-15T08:22:53.844Z,72.81
2017-06-15T08:23:55.281Z,74.69
2017-06-15T08:24:56.712Z,74.88
2017-06-15T08:25:58.149Z,72.36
2017-06-15T08:26:59.594Z,73.33
2017-06-15T08:28:01.041Z,71.59
2017-06-15T08:29:02.478Z,71.26
2017-06-15T08:30:03.912Z,73.59
2017-06-15T08:31:05.352Z,71.84
2017-06-15T08:32:06.787Z,72.42
2017-06-15T08:33:08.212Z,71.78
2017-06-15T08:34:09.654Z,72.14
2017-06-15T08:35:11.093Z,72.95
2017-06-15T08:36:12.529Z,72.36
2017-06-15T08:37:13.965Z,72.46
2017-06-15T08:38:15.400Z,71.88
2017-06-15T08:39:16.838Z,70.86
2017-06-15T08:40:18.269Z,69.40
2017-06-15T08:41:19.711Z,69.50
2017-06-15T08:42:21.150Z,71.62
2017-06-15T08:43:22.580Z,70.76
2017-06-15T08:44:24.023Z,71.95
2017-06-15T08:45:25.461Z,70.79
2017-06-15T08:46:26.901Z,73.69
2017-06-15T08:47:28.333Z,69.43
2017-06-15T08:48:29.769Z,71.08
2017-06-15T08:49:31.209Z,69.53
2017-06-15T08:50:32.642Z,70.01
2017-06-15T08:51:34.079Z,69.69
2017-06-15T08:52:35.511Z,69.50
2017-06-15T08:53:36.950Z,72.98
2017-06-15T08:54:38.389Z,71.82
2017-06-15T08:55:39.824Z,71.08
2017-06-15T08:56:41.258Z,69.82
2017-06-15T08:57:42.695Z,71.95
2017-06-15T08:58:44.132Z,70.89
2017-06-15T08:59:45.573Z,72.98
2017-06-15T09:00:47.016Z,71.24
2017-06-15T09:01:48.454Z,71.62
2017-06-15T09:02:49.893Z,71.72
2017-06-15T09:03:51.323Z,72.53
2017-06-15T09:04:52.756Z,71.28
2017-06-15T09:05:54.200Z,71.41
2017-06-15T09:06:55.688Z,69.37
2017-06-15T09:07:57.123Z,71.89
2017-06-15T09:08:58.556Z,73.31
2017-06-15T09:09:59.997Z,73.02
2017-06-15T09:11:01.436Z,73.31
2017-06-15T09:12:02.877Z,72.24
2017-06-15T09:13:04.309Z,72.92
2017-06-15T09:14:05.752Z,70.89
2017-06-15T09:15:07.203Z,71.60
2017-06-15T09:16:08.645Z,69.82
2017-06-15T09:17:11.889Z,70.83
2017-06-15T09:18:13.324Z,70.44
2017-06-15T09:19:14.764Z,73.09
2017-06-15T09:20:16.201Z,69.02
2017-06-15T09:21:17.671Z,68.73
2017-06-15T09:22:19.107Z,67.14
2017-06-15T09:23:20.538Z,68.40
2017-06-15T09:24:21.977Z,68.05
2017-06-15T09:25:23.419Z,68.63
2017-06-15T09:26:24.855Z,70.99
2017-06-15T09:27:26.295Z,68.57
2017-06-15T09:28:27.737Z,69.73
2017-06-15T09:29:29.221Z,66.50
2017-06-15T09:30:30.656Z,68.73
2017-06-15T09:31:32.104Z,70.28
2017-06-15T09:32:33.539Z,67.18
2017-06-15T09:33:34.982Z,69.02
2017-06-15T09:34:36.428Z,66.79
2017-06-15T09:35:37.865Z,68.34
2017-06-15T09:36:39.302Z,66.02
2017-06-15T09:37:40.744Z,69.34
2017-06-15T09:38:42.182Z,68.86
2017-06-15T09:39:43.623Z,63.91
2017-06-15T09:40:45.064Z,64.14
2017-06-15T09:41:46.492Z,66.44
2017-06-15T09:42:47.944Z,64.75
2017-06-15T09:43:49.395Z,64.17
2017-06-15T09:44:50.838Z,64.75
2017-06-15T09:45:52.277Z,66.30
2017-06-15T09:46:53.708Z,66.86
2017-06-15T09:47:55.201Z,65.47
2017-06-15T09:48:56.646Z,63.36
2017-06-15T09:49:58.079Z,63.49
2017-06-15T09:50:59.526Z,63.36
2017-06-15T09:52:00.969Z,64.23
2017-06-15T09:53:02.414Z,64.04
2017-06-15T09:54:03.865Z,64.62
2017-06-15T09:55:05.315Z,65.72
2017-06-15T09:56:06.753Z,65.11
2017-06-15T09:57:08.183Z,65.98
2017-06-15T09:58:09.620Z,63.95
2017-06-15T09:59:11.743Z,65.40
2017-06-15T10:00:12.464Z,66.14
2017-06-15T10:01:13.906Z,66.76
2017-06-15T10:02:15.343Z,66.14
2017-06-15T10:03:16.782Z,64.62
2017-06-15T10:04:18.221Z,65.72
2017-06-15T10:05:19.751Z,66.40
2017-06-15T10:06:21.193Z,66.50
2017-06-15T10:07:22.635Z,64.04
2017-06-15T10:08:24.072Z,64.92
2017-06-15T10:09:25.513Z,66.11
2017-06-15T10:10:26.951Z,64.72
2017-06-15T10:11:28.397Z,62.62
2017-06-15T10:12:29.843Z,63.39
2017-06-15T10:13:31.280Z,64.72
2017-06-15T10:14:32.732Z,62.55
2017-06-15T10:15:34.167Z,64.78
2017-06-15T10:16:35.611Z,63.65
2017-06-15T10:17:37.060Z,63.10
2017-06-15T10:18:38.502Z,62.35
2017-06-15T10:19:39.935Z,64.07
2017-06-15T10:20:41.375Z,63.29
2017-06-15T10:21:42.824Z,64.07
2017-06-15T10:22:44.260Z,62.13
2017-06-15T10:23:45.749Z,63.62
2017-06-15T10:24:48.079Z,61.09
2017-06-15T10:25:49.524Z,64.11
2017-06-15T10:26:50.958Z,62.97
2017-06-15T10:27:52.402Z,64.39
2017-06-15T10:28:53.847Z,58.82
2017-06-15T10:29:55.282Z,61.18
2017-06-15T10:30:56.728Z,65.46
2017-06-15T10:31:58.178Z,62.90
2017-06-15T10:32:59.610Z,62.41
2017-06-15T10:34:01.056Z,62.51
2017-06-15T10:35:02.491Z,64.17
2017-06-15T10:36:03.927Z,62.38
2017-06-15T10:37:05.378Z,62.68
2017-06-15T10:38:06.811Z,61.22
2017-06-15T10:39:08.257Z,60.15
2017-06-15T10:40:09.700Z,61.32
2017-06-15T10:41:12.031Z,62.41
2017-06-15T10:42:13.474Z,61.15
2017-06-15T10:43:14.904Z,59.99
2017-06-15T10:44:16.370Z,60.28
2017-06-15T10:45:17.778Z,59.92
2017-06-15T10:46:19.221Z,64.29
2017-06-15T10:47:20.652Z,61.02
2017-06-15T10:48:22.085Z,63.59
2017-06-15T10:49:23.538Z,63.68
2017-06-15T10:50:24.974Z,61.05
2017-06-15T10:51:26.425Z,60.47
2017-06-15T10:52:27.861Z,58.82
2017-06-15T10:53:29.314Z,60.67
2017-06-15T10:54:30.754Z,60.35
2017-06-15T10:55:32.197Z,62.97
2017-06-15T10:56:33.637Z,61.05
2017-06-15T10:57:35.078Z,59.99
2017-06-15T10:58:36.516Z,63.29
2017-06-15T10:59:37.959Z,60.18
2017-06-15T11:00:39.394Z,61.15
2017-06-15T11:01:40.832Z,62.71
2017-06-15T11:02:42.271Z,62.45
2017-06-15T11:03:43.709Z,60.72
2017-06-15T11:04:45.153Z,61.80
2017-06-15T11:05:46.590Z,60.17
2017-06-15T11:06:48.042Z,58.06
2017-06-15T11:07:49.480Z,59.13
2017-06-15T11:08:50.913Z,58.06
2017-06-15T11:09:52.356Z,56.89
2017-06-15T11:10:53.794Z,58.77
2017-06-15T11:11:55.245Z,56.89
2017-06-15T11:12:56.698Z,53.87
2017-06-15T11:13:58.139Z,55.50
2017-06-15T11:14:59.593Z,54.62
2017-06-15T11:16:01.032Z,55.79
2017-06-15T11:17:02.513Z,56.11
2017-06-15T11:18:03.949Z,55.50
2017-06-15T11:19:05.388Z,56.30
2017-06-15T11:20:06.839Z,55.89
2017-06-15T11:21:08.277Z,57.35
2017-06-15T11:22:09.725Z,56.21
2017-06-15T11:23:11.176Z,55.91
2017-06-15T11:24:12.626Z,56.40
2017-06-15T11:25:14.063Z,56.23
2017-06-15T11:26:15.505Z,55.36
2017-06-15T11:27:16.941Z,56.16
2017-06-15T11:28:18.386Z,57.53
2017-06-15T11:29:19.822Z,58.67
2017-06-15T11:30:21.267Z,56.46
2017-06-15T11:31:22.707Z,56.36
2017-06-15T11:32:24.151Z,56.95
2017-06-15T11:33:25.616Z,57.40
2017-06-15T11:34:27.055Z,55.19
2017-06-15T11:35:28.503Z,56.46
2017-06-15T11:36:29.940Z,56.65
2017-06-15T11:37:31.387Z,59.19
2017-06-15T11:38:32.833Z,54.93
2017-06-15T11:39:34.281Z,55.41
2017-06-15T11:40:35.718Z,55.90
2017-06-15T11:41:37.147Z,57.75
2017-06-15T11:42:39.158Z,54.80
2017-06-15T11:43:40.594Z,54.63
2017-06-15T11:44:42.032Z,53.14
2017-06-15T11:45:43.481Z,57.17
2017-06-15T11:46:44.924Z,56.20
2017-06-15T11:47:46.366Z,55.90
2017-06-15T11:48:47.799Z,53.66
2017-06-15T11:49:49.304Z,54.75
2017-06-15T11:50:50.764Z,55.34
2017-06-15T11:51:52.202Z,54.44
2017-06-15T11:52:53.639Z,56.38
2017-06-15T11:53:55.075Z,53.53
2017-06-15T11:54:56.524Z,53.92
2017-06-15T11:55:57.965Z,55.38
2017-06-15T11:56:59.399Z,54.21
2017-06-15T11:58:00.851Z,52.39
2017-06-15T11:59:02.293Z,54.07
2017-06-15T12:00:03.733Z,53.97
2017-06-15T12:01:05.178Z,53.56
2017-06-15T12:02:06.619Z,55.73
2017-06-15T12:03:08.077Z,52.51
2017-06-15T12:04:09.513Z,51.82
2017-06-15T12:05:10.951Z,52.51
2017-06-15T12:06:13.333Z,53.13
2017-06-15T12:07:14.773Z,55.49
2017-06-15T12:08:17.048Z,54.98
2017-06-15T12:09:18.488Z,54.98
2017-06-15T12:10:19.932Z,53.32
2017-06-15T12:11:21.373Z,55.34
2017-06-15T12:12:22.811Z,53.97
2017-06-15T12:13:24.264Z,55.34
2017-06-15T12:14:25.719Z,55.08
2017-06-15T12:15:27.170Z,55.96
2017-06-15T12:16:28.606Z,56.97
2017-06-15T12:17:30.045Z,54.93
2017-06-15T12:18:31.492Z,55.02
2017-06-15T12:19:32.938Z,54.75
2017-06-15T12:20:34.376Z,53.17
2017-06-15T12:21:35.818Z,54.90
2017-06-15T12:22:37.260Z,55.77
2017-06-15T12:23:38.706Z,54.53
2017-06-15T12:24:40.145Z,54.63
2017-06-15T12:25:41.587Z,54.95
2017-06-15T12:26:43.030Z,53.61
2017-06-15T12:27:44.468Z,57.64
2017-06-15T12:28:45.915Z,54.71
2017-06-15T12:29:47.356Z,52.47
2017-06-15T12:30:48.793Z,52.47
2017-06-15T12:31:50.224Z,51.88
2017-06-15T12:32:51.668Z,52.15
2017-06-15T12:33:53.116Z,54.79
2017-06-15T12:34:54.565Z,52.51
2017-06-15T12:35:56.000Z,55.83
2017-06-15T12:36:57.439Z,50.98
2017-06-15T12:37:58.885Z,50.10
2017-06-15T12:39:00.319Z,55.37
2017-06-15T12:40:01.768Z,51.07
2017-06-15T12:41:03.207Z,52.56
2017-06-15T12:42:04.650Z,54.22
2017-06-15T12:43:06.094Z,57.23
2017-06-15T12:44:07.536Z,54.69
2017-06-15T12:45:08.977Z,56.61
2017-06-15T12:46:10.420Z,53.27
2017-06-15T12:47:11.858Z,54.58
2017-06-15T12:48:14.253Z,54.31
2017-06-15T12:49:15.690Z,58.50
2017-06-15T12:50:17.189Z,57.75
2017-06-15T12:51:18.605Z,55.15
2017-06-15T12:52:20.043Z,56.18
2017-06-15T12:53:21.518Z,53.74
2017-06-15T12:54:22.960Z,54.42
2017-06-15T12:55:24.409Z,55.27
2017-06-15T12:56:25.852Z,55.79
2017-06-15T12:57:27.289Z,54.81
2017-06-15T12:58:28.733Z,54.52
2017-06-15T12:59:30.168Z,50.85
2017-06-15T13:00:31.609Z,50.85
2017-06-15T13:01:33.046Z,51.76
2017-06-15T13:02:34.494Z,54.56
2017-06-15T13:03:35.938Z,54.93
2017-06-15T13:04:37.389Z,52.29
2017-06-15T13:05:38.825Z,51.61
2017-06-15T13:06:40.271Z,50.63
2017-06-15T13:07:41.710Z,53.83
2017-06-15T13:08:43.153Z,52.87
2017-06-15T13:09:44.590Z,52.68
2017-06-15T13:10:46.026Z,54.80